Time;durP1;ratioP1;P1;durP2;ratioP2;P2;SDS_P1;SDS_P2;PMS_P1;PMS_P2;Temp;Humidity;BMP_temperature;BMP_pressure;BME280_temperature;BME280_humidity;BME280_pressure;Samples;Min_cycle;Max_cycle;Signal;HPM_P1;HPM_P2
2022/06/17 00:01:44;;;;;;;6.90;4.83;;;13.30;99.90;;;;;;5086017;28;20040;-78
2022/06/17 00:04:10;;;;;;;8.27;5.03;;;13.20;99.90;;;;;;5052957;28;20044;-77
2022/06/17 00:06:40;;;;;;;5.47;4.97;;;13.20;99.90;;;;;;5087143;28;20043;-76
2022/06/17 00:09:08;;;;;;;8.13;5.00;;;13.10;99.90;;;;;;5068103;28;20085;-79
2022/06/17 00:11:36;;;;;;;7.97;5.13;;;13.00;99.90;;;;;;5053866;28;20409;-76
2022/06/17 00:14:03;;;;;;;11.17;5.30;;;12.90;99.90;;;;;;5068833;28;20374;-77
2022/06/17 00:16:29;;;;;;;7.93;5.30;;;12.90;99.90;;;;;;5053122;28;20760;-79
2022/06/17 00:18:55;;;;;;;11.53;6.60;;;12.90;99.90;;;;;;5071387;28;20147;-78
2022/06/17 00:21:24;;;;;;;8.90;5.80;;;12.90;99.90;;;;;;5068793;28;20558;-77
2022/06/17 00:23:50;;;;;;;11.10;6.23;;;12.90;99.90;;;;;;5069221;28;20490;-77
2022/06/17 00:26:17;;;;;;;7.83;6.33;;;13.00;99.90;;;;;;5051999;28;20047;-78
2022/06/17 00:28:44;;;;;;;10.37;5.57;;;13.00;99.90;;;;;;5081887;28;20044;-77
2022/06/17 00:31:10;;;;;;;9.77;5.90;;;13.00;99.90;;;;;;5051673;28;20511;-76
2022/06/17 00:33:36;;;;;;;6.53;5.83;;;12.90;99.90;;;;;;5052397;28;20093;-77
2022/06/17 00:36:04;;;;;;;7.30;5.90;;;13.00;99.90;;;;;;5068814;28;20040;-77
2022/06/17 00:38:32;;;;;;;8.80;5.70;;;13.00;99.90;;;;;;5070607;28;20383;-78
2022/06/17 00:41:09;;;;;;;7.77;5.77;;;12.90;99.90;;;;;;5052402;28;20123;-77
2022/06/17 00:43:37;;;;;;;6.77;5.70;;;13.00;99.90;;;;;;5067276;28;20036;-77
2022/06/17 00:46:10;;;;;;;5.63;4.93;;;12.90;99.90;;;;;;5053303;28;20152;-77
2022/06/17 00:48:42;;;;;;;8.47;5.80;;;12.90;99.90;;;;;;5055363;28;20035;-78
2022/06/17 00:51:16;;;;;;;7.27;5.17;;;12.90;99.90;;;;;;5083681;28;20039;-76
2022/06/17 00:53:49;;;;;;;7.07;5.32;;;12.80;99.90;;;;;;5055269;28;20440;-77
2022/06/17 00:56:18;;;;;;;6.70;6.00;;;12.80;99.90;;;;;;5069794;28;20032;-78
2022/06/17 00:58:59;;;;;;;10.33;6.67;;;12.80;99.90;;;;;;5071169;28;20044;-77
2022/06/17 01:01:25;;;;;;;10.10;6.50;;;12.70;99.90;;;;;;5071474;28;20093;-76
2022/06/17 01:03:55;;;;;;;9.90;6.60;;;12.70;99.90;;;;;;5054270;28;20044;-77
2022/06/17 01:06:25;;;;;;;8.37;6.97;;;12.70;99.90;;;;;;5055090;28;20051;-76
2022/06/17 01:11:42;;;;;;;7.97;6.17;;;12.70;99.90;;;;;;5056316;28;20040;-77
2022/06/17 01:14:12;;;;;;;9.10;7.00;;;12.70;99.90;;;;;;5071213;28;20040;-77
2022/06/17 01:16:41;;;;;;;9.93;6.37;;;12.70;99.90;;;;;;5039085;28;20043;-78
2022/06/17 01:19:22;;;;;;;8.27;6.03;;;12.70;99.90;;;;;;5069449;28;20040;-78
2022/06/17 01:21:51;;;;;;;9.20;6.33;;;12.70;99.90;;;;;;5071258;28;20374;-76
2022/06/17 01:24:19;;;;;;;8.33;6.63;;;12.70;99.90;;;;;;5035007;28;20040;-76
2022/06/17 01:26:45;;;;;;;7.27;6.13;;;12.70;99.90;;;;;;5059672;28;20524;-77
2022/06/17 01:29:13;;;;;;;9.50;7.30;;;12.70;99.90;;;;;;5055884;28;20040;-77
2022/06/17 01:31:44;;;;;;;7.10;6.40;;;12.70;99.90;;;;;;5070869;28;20041;-76
2022/06/17 01:34:13;;;;;;;10.67;7.43;;;12.70;99.90;;;;;;5053276;28;20402;-76
2022/06/17 01:36:40;;;;;;;10.53;7.10;;;12.70;99.90;;;;;;5053915;28;20039;-76
2022/06/17 01:39:06;;;;;;;9.90;6.80;;;12.70;99.90;;;;;;5033957;28;20090;-76
2022/06/17 01:41:34;;;;;;;7.40;6.00;;;12.80;99.90;;;;;;5050544;28;20071;-76
2022/06/17 01:44:05;;;;;;;8.87;6.17;;;12.80;99.90;;;;;;5052860;28;20117;-76
2022/06/17 01:46:34;;;;;;;9.00;6.77;;;12.70;99.90;;;;;;5049280;28;20089;-77
2022/06/17 01:49:03;;;;;;;9.07;5.80;;;12.70;99.90;;;;;;5054112;28;20028;-76
2022/06/17 01:51:32;;;;;;;7.33;5.93;;;12.70;99.90;;;;;;5087641;28;20052;-77
2022/06/17 01:54:04;;;;;;;6.50;5.80;;;12.70;99.90;;;;;;5055641;28;20044;-77
2022/06/17 01:56:34;;;;;;;5.80;5.27;;;12.70;99.90;;;;;;5067001;28;20048;-76
2022/06/17 01:59:05;;;;;;;9.33;6.33;;;12.70;99.90;;;;;;5052881;28;20069;-76
2022/06/17 02:01:34;;;;;;;10.10;6.23;;;12.70;99.90;;;;;;5065807;28;20452;-76
2022/06/17 02:04:06;;;;;;;10.83;6.50;;;12.70;99.90;;;;;;5051245;28;20089;-77
2022/06/17 02:06:43;;;;;;;9.00;6.80;;;12.60;99.90;;;;;;5051822;28;20130;-78
2022/06/17 02:09:08;;;;;;;10.00;6.37;;;12.60;99.90;;;;;;5046827;28;20535;-76
2022/06/17 02:11:38;;;;;;;6.70;5.93;;;12.60;99.90;;;;;;5052910;28;20047;-76
2022/06/17 02:14:13;;;;;;;9.80;6.83;;;12.60;99.90;;;;;;5070142;28;20054;-77
2022/06/17 02:16:51;;;;;;;8.70;6.20;;;12.60;99.90;;;;;;5055715;28;20122;-76
2022/06/17 02:19:43;;;;;;;11.53;6.80;;;12.60;99.90;;;;;;5055289;28;20032;-76
2022/06/17 02:22:13;;;;;;;10.40;7.37;;;12.60;99.90;;;;;;5066305;28;20081;-76
2022/06/17 02:24:40;;;;;;;10.27;7.50;;;12.60;99.90;;;;;;5069699;28;20047;-76
2022/06/17 02:27:11;;;;;;;10.63;7.00;;;12.60;99.90;;;;;;5037784;28;20040;-78
2022/06/17 02:29:39;;;;;;;8.27;7.13;;;12.60;99.90;;;;;;5051822;28;20113;-76
2022/06/17 02:32:07;;;;;;;10.17;7.00;;;12.60;99.90;;;;;;5053012;28;20055;-77
2022/06/17 02:34:38;;;;;;;9.00;7.77;;;12.60;99.90;;;;;;5062245;28;20040;-76
2022/06/17 02:37:10;;;;;;;8.30;7.43;;;12.50;99.90;;;;;;5052236;28;20044;-78
2022/06/17 02:39:45;;;;;;;8.60;6.73;;;12.50;99.90;;;;;;5072627;22;20603;-76
2022/06/17 02:42:18;;;;;;;14.87;6.93;;;12.50;99.90;;;;;;5032416;28;20048;-76
2022/06/17 02:44:46;;;;;;;9.07;7.63;;;12.50;99.90;;;;;;5030760;28;20037;-76
2022/06/17 02:47:12;;;;;;;9.33;8.43;;;12.50;99.90;;;;;;5031628;28;20123;-76
2022/06/17 02:49:40;;;;;;;10.37;8.47;;;12.50;99.90;;;;;;5029715;28;20048;-76
2022/06/17 02:52:13;;;;;;;7.97;7.17;;;12.50;99.90;;;;;;5025291;28;20052;-76
2022/06/17 02:54:42;;;;;;;12.38;7.97;;;12.50;99.90;;;;;;5029312;28;20040;-76
2022/06/17 02:57:18;;;;;;;9.60;7.80;;;12.50;99.90;;;;;;5018207;28;20059;-76
2022/06/17 02:59:48;;;;;;;11.50;7.77;;;12.50;99.90;;;;;;5048781;28;20040;-76
2022/06/17 03:02:22;;;;;;;10.43;7.57;;;12.50;99.90;;;;;;5030989;28;20055;-75
2022/06/17 03:04:52;;;;;;;9.80;7.10;;;12.50;99.90;;;;;;5044020;28;20413;-76
2022/06/17 03:07:20;;;;;;;8.30;6.97;;;12.50;99.90;;;;;;5030157;28;20041;-76
2022/06/17 03:09:49;;;;;;;12.37;7.47;;;12.40;99.90;;;;;;5027236;28;20476;-76
2022/06/17 03:12:22;;;;;;;9.97;7.60;;;12.50;99.90;;;;;;5010773;28;20052;-76
2022/06/17 03:14:55;;;;;;;13.27;8.33;;;12.40;99.90;;;;;;5045750;28;20780;-76
2022/06/17 03:17:24;;;;;;;10.03;7.57;;;12.50;99.90;;;;;;5045312;28;20056;-76
2022/06/17 03:19:52;;;;;;;10.97;8.83;;;12.40;99.90;;;;;;5046851;28;20089;-76
2022/06/17 03:22:18;;;;;;;12.17;8.50;;;12.50;99.90;;;;;;5031352;28;20084;-76
2022/06/17 03:24:52;;;;;;;14.40;8.77;;;12.50;99.90;;;;;;5031509;28;20151;-76
2022/06/17 03:27:28;;;;;;;9.63;7.37;;;12.50;99.90;;;;;;5028557;28;20048;-76
2022/06/17 03:29:56;;;;;;;12.97;7.07;;;12.50;99.90;;;;;;5033828;28;20032;-76
2022/06/17 03:32:30;;;;;;;10.00;8.10;;;12.50;99.90;;;;;;5032736;28;20075;-76
2022/06/17 03:34:56;;;;;;;7.18;6.47;;;12.60;99.90;;;;;;5025990;28;20564;-76
2022/06/17 03:37:28;;;;;;;12.63;7.17;;;12.60;99.90;;;;;;5031758;28;20052;-76
2022/06/17 03:40:03;;;;;;;13.35;7.55;;;12.70;99.90;;;;;;5011649;28;20044;-75
2022/06/17 03:42:35;;;;;;;12.10;8.23;;;12.70;99.90;;;;;;5028001;28;20394;-76
2022/06/17 03:45:09;;;;;;;10.57;7.73;;;12.80;99.90;;;;;;5029995;28;20452;-76
2022/06/17 03:47:44;;;;;;;11.48;6.68;;;12.80;99.90;;;;;;5022736;28;20047;-76
2022/06/17 03:50:18;;;;;;;13.33;8.70;;;12.90;99.90;;;;;;5030256;28;20094;-76
2022/06/17 03:52:51;;;;;;;13.37;7.63;;;12.90;99.90;;;;;;5043426;28;20051;-76
2022/06/17 03:55:20;;;;;;;12.07;8.23;;;12.90;99.90;;;;;;5030973;28;20047;-76
2022/06/17 03:57:50;;;;;;;11.33;8.00;;;13.00;99.90;;;;;;5030491;28;20516;-76
2022/06/17 04:00:22;;;;;;;14.57;9.23;;;13.10;99.90;;;;;;5029739;28;20037;-76
2022/06/17 04:02:50;;;;;;;12.90;8.27;;;13.10;99.90;;;;;;5025038;28;20613;-76
2022/06/17 04:05:20;;;;;;;9.77;8.40;;;13.10;99.90;;;;;;5025704;28;20406;-76
2022/06/17 04:07:48;;;;;;;10.53;8.77;;;13.20;99.90;;;;;;5031162;28;20425;-75
2022/06/17 04:10:17;;;;;;;13.40;9.70;;;13.20;99.90;;;;;;5029618;28;20033;-76
2022/06/17 04:12:49;;;;;;;12.23;9.03;;;13.30;99.90;;;;;;5029227;28;20067;-76
2022/06/17 04:15:40;;;;;;;12.23;9.07;;;13.30;99.90;;;;;;5030779;28;20040;-76
2022/06/17 04:18:07;;;;;;;11.87;9.03;;;13.50;99.90;;;;;;5044879;28;20049;-76
2022/06/17 04:20:38;;;;;;;15.87;9.57;;;13.60;99.90;;;;;;5022617;28;20128;-75
2022/06/17 04:23:10;;;;;;;14.90;9.53;;;13.80;99.90;;;;;;5015319;28;20045;-76
2022/06/17 04:25:53;;;;;;;16.73;9.83;;;13.90;99.90;;;;;;5030044;28;20040;-75
2022/06/17 04:28:24;;;;;;;16.17;9.50;;;14.10;99.90;;;;;;5015412;28;20048;-75
2022/06/17 04:30:54;;;;;;;13.80;9.43;;;14.20;99.90;;;;;;5031102;28;20037;-76
2022/06/17 04:33:25;;;;;;;12.60;10.03;;;14.40;99.90;;;;;;5024788;28;20052;-76
2022/06/17 04:35:53;;;;;;;14.33;9.80;;;14.40;99.90;;;;;;5032143;28;20413;-76
2022/06/17 04:38:21;;;;;;;13.10;9.30;;;14.50;99.90;;;;;;5031802;28;20048;-75
2022/06/17 04:41:05;;;;;;;14.00;9.43;;;14.60;99.90;;;;;;5017288;28;20080;-76
2022/06/17 04:43:54;;;;;;;13.57;9.90;;;14.70;99.90;;;;;;5014749;28;20155;-75
2022/06/17 04:46:27;;;;;;;13.80;9.45;;;14.70;99.90;;;;;;5027124;28;20044;-76
2022/06/17 04:48:57;;;;;;;14.43;9.50;;;14.80;99.90;;;;;;5046550;28;20498;-76
2022/06/17 04:51:23;;;;;;;13.40;9.70;;;14.90;99.90;;;;;;5016455;28;20036;-76
2022/06/17 04:53:51;;;;;;;13.27;9.43;;;15.00;99.90;;;;;;5035249;28;20058;-75
2022/06/17 04:56:41;;;;;;;12.60;9.40;;;15.10;99.90;;;;;;5051427;28;20052;-75
2022/06/17 04:59:30;;;;;;;14.47;9.60;;;15.20;99.90;;;;;;5032370;28;20048;-75
2022/06/17 05:01:56;;;;;;;16.83;9.60;;;15.30;99.90;;;;;;5045705;28;20040;-76
2022/06/17 05:04:36;;;;;;;14.23;10.10;;;15.40;99.90;;;;;;5009496;28;20032;-75
2022/06/17 05:07:04;;;;;;;14.10;9.63;;;15.40;99.90;;;;;;5029393;28;20135;-75
2022/06/17 05:09:37;;;;;;;14.63;9.70;;;15.50;99.90;;;;;;5034044;28;20048;-76
2022/06/17 05:12:07;;;;;;;14.83;10.07;;;15.50;99.90;;;;;;5031376;28;20052;-76
2022/06/17 05:14:44;;;;;;;13.87;9.90;;;15.60;99.90;;;;;;5027822;28;20296;-76
2022/06/17 05:17:11;;;;;;;14.37;10.20;;;15.70;99.90;;;;;;5028145;28;20045;-76
2022/06/17 05:19:37;;;;;;;13.07;9.80;;;15.70;99.90;;;;;;5030885;28;21387;-76
2022/06/17 05:22:10;;;;;;;14.90;10.17;;;15.80;99.90;;;;;;5030750;28;20040;-77
2022/06/17 05:24:36;;;;;;;14.77;10.27;;;15.90;99.90;;;;;;5033057;28;20075;-76
2022/06/17 05:27:03;;;;;;;16.40;9.83;;;15.90;99.90;;;;;;5013590;28;20048;-76
2022/06/17 05:29:29;;;;;;;11.73;9.47;;;16.00;99.90;;;;;;5017280;28;20406;-76
2022/06/17 05:32:00;;;;;;;15.97;9.93;;;16.00;99.90;;;;;;5028466;28;20045;-76
2022/06/17 05:34:35;;;;;;;13.17;9.77;;;16.00;99.90;;;;;;5028207;28;20051;-76
2022/06/17 05:37:01;;;;;;;13.63;10.20;;;16.10;99.90;;;;;;5032171;28;20032;-76
2022/06/17 05:39:27;;;;;;;16.80;9.83;;;16.20;99.90;;;;;;5031841;28;20048;-76
2022/06/17 05:41:53;;;;;;;14.23;9.63;;;16.20;99.90;;;;;;5035028;28;20482;-76
2022/06/17 05:44:18;;;;;;;12.17;9.07;;;16.20;99.90;;;;;;5027525;28;20499;-75
2022/06/17 05:46:47;;;;;;;11.27;9.50;;;16.30;99.90;;;;;;5031833;28;20037;-76
2022/06/17 05:49:50;;;;;;;15.00;9.43;;;16.30;99.90;;;;;;4986144;28;20049;-76
2022/06/17 05:52:27;;;;;;;12.90;9.80;;;16.40;99.90;;;;;;5038956;28;20126;-76
2022/06/17 05:55:00;;;;;;;13.60;8.80;;;16.40;99.90;;;;;;5031711;28;20040;-76
2022/06/17 05:57:27;;;;;;;16.20;10.10;;;16.50;99.90;;;;;;5025919;28;20047;-75
2022/06/17 05:59:52;;;;;;;12.27;8.83;;;16.50;99.90;;;;;;5031604;28;20028;-75
2022/06/17 06:02:21;;;;;;;14.23;8.87;;;16.50;99.90;;;;;;5029361;28;20048;-75
2022/06/17 06:04:59;;;;;;;12.80;8.97;;;16.60;99.90;;;;;;5028865;28;20032;-76
2022/06/17 06:07:27;;;;;;;12.70;8.90;;;16.60;99.90;;;;;;5025133;28;20078;-75
2022/06/17 06:09:55;;;;;;;12.43;9.20;;;16.70;99.90;;;;;;5027043;28;20037;-75
2022/06/17 06:12:21;;;;;;;13.17;9.77;;;16.70;99.90;;;;;;5030931;28;20041;-75
2022/06/17 06:14:47;;;;;;;12.93;9.13;;;16.70;99.90;;;;;;5030949;28;20125;-75
2022/06/17 06:17:15;;;;;;;12.20;9.57;;;16.80;99.90;;;;;;5030314;28;20572;-75
2022/06/17 06:19:42;;;;;;;10.13;9.07;;;16.80;99.90;;;;;;5032384;28;20209;-76
2022/06/17 06:22:10;;;;;;;10.83;9.07;;;16.80;99.90;;;;;;5046220;28;20107;-76
2022/06/17 06:24:37;;;;;;;11.17;8.80;;;16.90;99.90;;;;;;5027828;28;20102;-75
2022/06/17 06:27:03;;;;;;;11.87;9.27;;;16.90;99.90;;;;;;5025575;28;20049;-76
2022/06/17 06:29:43;;;;;;;13.27;9.10;;;17.00;99.90;;;;;;5030597;28;20115;-76
2022/06/17 06:32:10;;;;;;;11.40;9.13;;;17.00;99.90;;;;;;5011620;28;20510;-77
2022/06/17 06:34:42;;;;;;;12.50;10.15;;;17.10;99.90;;;;;;5031937;28;20482;-74
2022/06/17 06:37:12;;;;;;;15.77;9.40;;;17.10;99.90;;;;;;5029831;28;20036;-76
2022/06/17 06:39:38;;;;;;;12.00;9.33;;;17.30;99.90;;;;;;5021287;28;20048;-76
2022/06/17 06:42:05;;;;;;;13.93;10.07;;;17.30;99.90;;;;;;5031046;28;20509;-76
2022/06/17 06:44:33;;;;;;;12.03;9.00;;;17.40;99.90;;;;;;5021789;28;20412;-75
2022/06/17 06:47:12;;;;;;;10.47;9.30;;;17.50;99.90;;;;;;5031280;28;20036;-74
2022/06/17 06:49:50;;;;;;;12.70;9.33;;;17.60;99.90;;;;;;5032354;28;20040;-76
2022/06/17 06:52:17;;;;;;;14.90;9.80;;;17.80;99.90;;;;;;5026882;28;20044;-76
2022/06/17 06:54:43;;;;;;;12.60;9.30;;;17.90;99.90;;;;;;5031310;28;20094;-76
2022/06/17 06:57:10;;;;;;;10.17;9.17;;;18.00;99.90;;;;;;5030446;28;20455;-75
2022/06/17 06:59:38;;;;;;;15.17;8.77;;;18.10;99.90;;;;;;5013451;28;20036;-77
2022/06/17 07:02:05;;;;;;;16.20;9.47;;;18.30;99.90;;;;;;5028665;28;20555;-76
2022/06/17 07:04:32;;;;;;;18.37;9.43;;;18.30;99.90;;;;;;5026815;28;20048;-76
2022/06/17 07:06:57;;;;;;;12.07;8.90;;;18.50;99.90;;;;;;5041247;28;20122;-76
2022/06/17 07:09:25;;;;;;;14.27;9.40;;;18.60;99.90;;;;;;5044143;28;20472;-75
2022/06/17 07:11:51;;;;;;;11.37;8.83;;;18.70;99.90;;;;;;5047463;28;20036;-76
2022/06/17 07:14:17;;;;;;;13.43;8.80;;;18.90;99.90;;;;;;5053044;28;20062;-76
2022/06/17 07:16:42;;;;;;;11.13;8.80;;;19.00;99.90;;;;;;5053682;28;20486;-75
2022/06/17 07:19:10;;;;;;;11.37;7.97;;;19.10;99.90;;;;;;5053741;28;20052;-76
2022/06/17 07:21:36;;;;;;;9.13;8.20;;;19.20;99.90;;;;;;5052848;28;20098;-76
2022/06/17 07:24:02;;;;;;;10.33;8.53;;;19.20;99.90;;;;;;5044307;28;20049;-75
2022/06/17 07:26:29;;;;;;;11.57;8.43;;;19.20;99.90;;;;;;5014041;28;20122;-76
2022/06/17 07:28:55;;;;;;;11.83;8.43;;;19.30;99.90;;;;;;5039712;28;20068;-77
2022/06/17 07:31:22;;;;;;;10.87;8.30;;;19.40;99.90;;;;;;5058790;28;20037;-76
2022/06/17 07:33:48;;;;;;;12.73;8.33;;;19.40;99.90;;;;;;5042957;28;20052;-76
2022/06/17 07:41:50;;;;;;;12.77;7.87;;;19.60;99.90;;;;;;5041714;28;20045;-76
2022/06/17 07:44:16;;;;;;;10.57;7.80;;;19.70;99.90;;;;;;5023842;28;20059;-76
2022/06/17 07:46:41;;;;;;;10.43;8.07;;;19.80;99.90;;;;;;5043759;28;20040;-76
2022/06/17 07:49:07;;;;;;;9.90;8.07;;;19.80;99.90;;;;;;5036501;28;20037;-76
2022/06/17 07:51:33;;;;;;;11.60;7.23;;;19.80;99.90;;;;;;5026112;28;20506;-75
2022/06/17 07:53:59;;;;;;;11.17;8.37;;;19.90;99.90;;;;;;5007224;28;20051;-77
2022/06/17 07:56:24;;;;;;;13.67;8.80;;;20.10;99.90;;;;;;5026960;28;20075;-75
2022/06/17 07:58:52;;;;;;;9.90;7.47;;;20.20;99.90;;;;;;5023700;28;20083;-74
2022/06/17 08:01:18;;;;;;;9.10;7.13;;;20.40;99.90;;;;;;5027804;28;20095;-75
2022/06/17 08:03:45;;;;;;;11.03;6.93;;;20.50;99.90;;;;;;5028762;28;20458;-75
2022/06/17 08:06:13;;;;;;;13.13;7.37;;;20.60;99.90;;;;;;5028093;28;20064;-75
2022/06/17 08:08:40;;;;;;;12.67;7.40;;;20.80;99.90;;;;;;5046928;28;20052;-77
2022/06/17 08:11:07;;;;;;;9.13;6.53;;;20.90;99.90;;;;;;5025650;28;20182;-75
2022/06/17 08:13:32;;;;;;;9.07;6.47;;;20.90;99.90;;;;;;5045990;28;20045;-74
2022/06/17 08:16:02;;;;;;;10.73;6.67;;;21.00;99.90;;;;;;5047634;28;20051;-76
2022/06/17 08:18:29;;;;;;;10.83;6.20;;;21.00;99.90;;;;;;5048024;28;20040;-76
2022/06/17 08:20:55;;;;;;;9.73;6.00;;;21.10;99.90;;;;;;5025286;28;20045;-75
2022/06/17 08:23:21;;;;;;;10.50;6.30;;;21.20;99.90;;;;;;5046259;28;20063;-75
2022/06/17 08:25:48;;;;;;;11.47;6.93;;;21.40;99.90;;;;;;5025482;28;20047;-76
2022/06/17 08:28:15;;;;;;;15.40;6.87;;;21.50;99.90;;;;;;5028394;28;20636;-76
2022/06/17 08:30:43;;;;;;;8.97;6.43;;;21.70;99.90;;;;;;5030450;28;20118;-75
2022/06/17 08:33:11;;;;;;;8.70;6.03;;;21.80;99.90;;;;;;5028838;28;20040;-76
2022/06/17 08:35:39;;;;;;;8.93;6.60;;;21.90;99.90;;;;;;5016202;28;20044;-75
2022/06/17 08:38:08;;;;;;;11.37;6.57;;;21.80;98.80;;;;;;5044998;28;20048;-75
2022/06/17 08:40:39;;;;;;;10.33;6.57;;;21.80;99.30;;;;;;5043548;23;20043;-77
2022/06/17 08:43:22;;;;;;;8.90;6.97;;;21.80;99.40;;;;;;5049490;28;20586;-76
2022/06/17 08:45:56;;;;;;;11.60;6.43;;;22.00;99.30;;;;;;5069742;28;20044;-78
2022/06/17 08:48:34;;;;;;;9.43;6.83;;;22.00;99.60;;;;;;5070245;28;20553;-76
2022/06/17 08:51:13;;;;;;;12.17;6.87;;;22.10;99.90;;;;;;5038940;28;20111;-79
2022/06/17 08:54:10;;;;;;;8.90;7.47;;;22.20;99.40;;;;;;5063298;28;20048;-76
2022/06/17 08:56:43;;;;;;;11.80;7.13;;;22.30;98.50;;;;;;5052499;28;20052;-77
2022/06/17 08:59:25;;;;;;;9.57;6.93;;;22.40;99.10;;;;;;5035035;28;20471;-77
2022/06/17 09:02:00;;;;;;;9.50;7.10;;;22.50;99.40;;;;;;5033044;28;20238;-77
2022/06/17 09:04:41;;;;;;;12.53;7.10;;;22.60;98.60;;;;;;5035297;28;20056;-76
2022/06/17 09:07:18;;;;;;;13.00;8.05;;;22.50;98.80;;;;;;5050373;28;20044;-79
2022/06/17 09:09:58;;;;;;;15.87;7.23;;;22.50;99.30;;;;;;5030135;28;20041;-78
2022/06/17 09:12:36;;;;;;;15.30;6.83;;;22.50;99.90;;;;;;5049791;28;20045;-76
2022/06/17 09:15:09;;;;;;;13.87;5.73;;;22.50;99.50;;;;;;5049302;28;20044;-80
2022/06/17 09:17:46;;;;;;;12.52;5.13;;;22.60;99.00;;;;;;5052999;28;20394;-77
2022/06/17 09:20:18;;;;;;;14.02;5.10;;;22.60;99.20;;;;;;5032672;28;20194;-77
2022/06/17 09:22:50;;;;;;;12.43;4.13;;;22.60;98.00;;;;;;5021516;28;20036;-77
2022/06/17 09:25:21;;;;;;;9.50;3.88;;;22.70;96.60;;;;;;5053551;28;20473;-76
2022/06/17 09:27:50;;;;;;;8.93;3.88;;;22.70;95.40;;;;;;5054055;28;20041;-79
2022/06/17 09:30:19;;;;;;;12.63;4.17;;;22.60;95.90;;;;;;5054575;28;20083;-77
2022/06/17 09:32:52;;;;;;;9.30;3.47;;;22.70;96.10;;;;;;5051957;28;20040;-78
2022/06/17 09:35:27;;;;;;;6.13;3.57;;;22.80;95.90;;;;;;5030637;28;20048;-76
2022/06/17 09:37:57;;;;;;;12.50;4.10;;;23.00;95.20;;;;;;5050453;28;21956;-75
2022/06/17 09:40:28;;;;;;;11.60;4.20;;;23.10;95.00;;;;;;5047529;28;20232;-75
2022/06/17 09:42:59;;;;;;;7.43;3.80;;;23.20;95.20;;;;;;5046468;28;20048;-77
2022/06/17 09:45:32;;;;;;;8.18;3.88;;;23.30;95.30;;;;;;5053398;28;20067;-76
2022/06/17 09:48:03;;;;;;;6.05;3.22;;;23.30;94.60;;;;;;5053225;28;20051;-77
2022/06/17 09:50:36;;;;;;;11.68;4.45;;;23.30;94.70;;;;;;5034994;28;20060;-76
2022/06/17 09:53:08;;;;;;;7.90;3.67;;;23.20;94.40;;;;;;5034458;28;20585;-80
2022/06/17 09:55:37;;;;;;;15.88;4.30;;;23.20;94.10;;;;;;5034341;28;20041;-77
2022/06/17 09:58:06;;;;;;;6.10;3.63;;;23.20;94.60;;;;;;5034697;28;20044;-75
2022/06/17 10:00:37;;;;;;;8.82;3.47;;;23.40;94.00;;;;;;5035093;28;20044;-76
2022/06/17 10:03:19;;;;;;;8.00;3.58;;;23.60;93.60;;;;;;5036491;28;20048;-78
2022/06/17 10:05:56;;;;;;;6.30;4.03;;;23.70;93.50;;;;;;5050662;28;20097;-79
2022/06/17 10:08:28;;;;;;;8.70;3.70;;;23.90;93.50;;;;;;5046736;28;20051;-76
2022/06/17 10:11:03;;;;;;;8.70;3.63;;;23.90;93.50;;;;;;5050920;28;20490;-80
2022/06/17 10:13:36;;;;;;;7.80;3.83;;;23.90;93.70;;;;;;5035673;28;20097;-77
2022/06/17 10:19:07;;;;;;;7.90;3.67;;;24.00;94.00;;;;;;5052888;28;20049;-77
2022/06/17 10:21:45;;;;;;;7.45;3.47;;;24.00;94.10;;;;;;5048870;28;20048;-77
2022/06/17 10:24:24;;;;;;;6.80;3.65;;;24.00;93.20;;;;;;5052545;28;20055;-78
2022/06/17 10:27:04;;;;;;;9.70;4.07;;;24.00;92.70;;;;;;5032733;28;20051;-77
2022/06/17 10:29:56;;;;;;;9.73;3.95;;;24.00;92.40;;;;;;5052861;28;21065;-77
2022/06/17 10:32:22;;;;;;;8.88;4.20;;;24.10;92.80;;;;;;5054274;28;20521;-75
2022/06/17 10:34:53;;;;;;;8.82;3.88;;;24.10;92.60;;;;;;5052850;28;20097;-78
2022/06/17 10:37:20;;;;;;;11.85;4.70;;;24.10;92.80;;;;;;5054603;28;20173;-77
2022/06/17 10:39:46;;;;;;;10.10;4.65;;;24.10;92.00;;;;;;5034908;28;20053;-76
2022/06/17 10:42:16;;;;;;;6.35;3.85;;;24.10;92.30;;;;;;5052544;28;20715;-76
2022/06/17 10:44:45;;;;;;;8.32;4.00;;;24.10;92.80;;;;;;5038692;28;20097;-77
2022/06/17 10:47:24;;;;;;;8.05;4.07;;;24.10;92.70;;;;;;5057595;28;20040;-77
2022/06/17 10:49:55;;;;;;;9.93;4.15;;;24.10;92.50;;;;;;5055232;28;20467;-76
2022/06/17 10:52:29;;;;;;;10.07;3.97;;;24.10;92.50;;;;;;5036831;28;20052;-78
2022/06/17 10:54:56;;;;;;;8.68;4.00;;;24.20;92.90;;;;;;5049364;28;20052;-77
2022/06/17 10:57:24;;;;;;;6.40;3.28;;;24.40;92.90;;;;;;5034670;28;20498;-77
2022/06/17 10:59:50;;;;;;;10.30;3.38;;;24.50;92.80;;;;;;5034492;28;20036;-76
2022/06/17 11:02:25;;;;;;;5.60;2.78;;;24.50;91.70;;;;;;5066144;28;20048;-78
2022/06/17 11:04:54;;;;;;;6.60;2.90;;;24.80;92.00;;;;;;5044778;28;20055;-76
2022/06/17 11:07:27;;;;;;;8.38;2.95;;;25.10;91.80;;;;;;5048088;28;20060;-77
2022/06/17 11:09:57;;;;;;;5.53;3.08;;;25.20;92.00;;;;;;5032321;28;20649;-78
2022/06/17 11:12:36;;;;;;;6.13;3.13;;;25.40;92.20;;;;;;5049218;28;20136;-76
2022/06/17 11:15:05;;;;;;;6.72;3.40;;;25.50;91.30;;;;;;5047827;28;21901;-79
2022/06/17 11:17:34;;;;;;;6.63;2.97;;;25.50;90.00;;;;;;5062580;28;20085;-77
2022/06/17 11:20:06;;;;;;;6.15;3.05;;;25.30;89.10;;;;;;5048688;28;20652;-77
2022/06/17 11:22:37;;;;;;;8.10;3.05;;;25.20;89.60;;;;;;5066675;28;20044;-76
2022/06/17 11:25:06;;;;;;;8.82;3.08;;;25.10;90.70;;;;;;5049667;28;20789;-76
2022/06/17 11:27:38;;;;;;;8.88;3.47;;;25.10;90.10;;;;;;5049452;28;20036;-80
2022/06/17 11:30:21;;;;;;;5.97;3.00;;;25.00;90.30;;;;;;5028797;28;20063;-78
2022/06/17 11:32:48;;;;;;;7.45;3.20;;;25.00;90.60;;;;;;5046329;28;20051;-77
2022/06/17 11:35:21;;;;;;;5.80;3.25;;;25.10;91.00;;;;;;5049560;28;20055;-77
2022/06/17 11:37:50;;;;;;;7.47;3.15;;;25.20;90.80;;;;;;5047682;28;20051;-77
2022/06/17 11:40:19;;;;;;;6.35;3.00;;;25.30;90.00;;;;;;5049019;28;20036;-78
2022/06/17 11:42:51;;;;;;;5.03;3.15;;;25.40;88.70;;;;;;5043801;28;20050;-80
2022/06/17 11:45:21;;;;;;;6.18;3.25;;;25.40;88.40;;;;;;5031946;28;20044;-79
2022/06/17 11:47:52;;;;;;;6.00;3.13;;;25.40;88.00;;;;;;5053235;28;20044;-78
2022/06/17 11:50:23;;;;;;;7.40;2.80;;;25.50;88.90;;;;;;5017521;28;20371;-79
2022/06/17 11:52:58;;;;;;;7.07;3.25;;;25.60;88.80;;;;;;5032606;28;20521;-79
2022/06/17 11:55:27;;;;;;;8.32;3.38;;;25.60;86.20;;;;;;5049026;28;20045;-79
2022/06/17 11:57:53;;;;;;;6.68;3.55;;;25.60;87.00;;;;;;5046221;28;20576;-79
2022/06/17 12:00:24;;;;;;;7.40;3.63;;;25.70;87.10;;;;;;5030618;28;20080;-77
2022/06/17 12:03:00;;;;;;;7.25;3.30;;;25.80;85.00;;;;;;5045622;28;20109;-78
2022/06/17 12:05:29;;;;;;;5.80;3.60;;;25.90;84.00;;;;;;5030806;28;20044;-78
2022/06/17 12:08:00;;;;;;;7.60;3.80;;;26.00;84.80;;;;;;5047349;28;20565;-76
2022/06/17 12:10:36;;;;;;;5.40;2.65;;;26.10;83.60;;;;;;5031852;28;20115;-82
2022/06/17 12:13:04;;;;;;;7.05;3.63;;;26.30;84.50;;;;;;5030802;28;20041;-77
2022/06/17 12:15:34;;;;;;;7.82;4.20;;;26.60;82.80;;;;;;5047250;28;20119;-77
2022/06/17 12:18:02;;;;;;;8.45;3.70;;;26.90;83.10;;;;;;5030738;28;20127;-80
2022/06/17 12:20:40;;;;;;;6.10;3.65;;;27.00;81.50;;;;;;5047216;28;20045;-81
2022/06/17 12:23:13;;;;;;;8.63;3.40;;;27.10;78.60;;;;;;5042185;28;20059;-79
2022/06/17 12:25:43;;;;;;;6.10;2.77;;;27.10;76.90;;;;;;5046468;28;20055;-79
2022/06/17 12:28:21;;;;;;;6.97;2.80;;;27.20;77.60;;;;;;5030188;28;20060;-75
2022/06/17 12:30:55;;;;;;;6.57;3.15;;;27.60;75.40;;;;;;5050001;28;20055;-77
2022/06/17 12:33:27;;;;;;;5.90;2.97;;;27.80;71.90;;;;;;5044703;28;20987;-78
2022/06/17 12:36:00;;;;;;;8.57;3.35;;;27.90;73.60;;;;;;5046418;28;20151;-80
2022/06/17 12:38:29;;;;;;;;;;;28.10;75.30;;;;;;5047922;28;20044;-78
2022/06/17 12:41:05;;;;;;;7.80;3.08;;;28.40;73.10;;;;;;5028535;28;19924;-78
2022/06/17 12:43:38;;;;;;;5.75;3.28;;;28.50;70.80;;;;;;5045554;28;20055;-77
2022/06/17 12:46:08;;;;;;;5.60;3.40;;;28.20;71.20;;;;;;5051662;28;20105;-78
2022/06/17 12:48:44;;;;;;;4.50;2.92;;;28.10;70.10;;;;;;5032343;28;20052;-79
2022/06/17 12:54:13;;;;;;;6.17;2.90;;;28.20;69.00;;;;;;5065167;28;20051;-78
2022/06/17 12:56:48;;;;;;;5.22;3.53;;;28.40;69.60;;;;;;5036166;28;20316;-77
2022/06/17 12:59:27;;;;;;;4.38;2.80;;;28.50;67.90;;;;;;5050242;28;20090;-78
2022/06/17 13:02:03;;;;;;;9.82;2.67;;;28.40;68.70;;;;;;5050013;28;20052;-77
2022/06/17 13:04:44;;;;;;;5.40;2.67;;;28.40;67.50;;;;;;5034429;28;20519;-78
2022/06/17 13:07:17;;;;;;;7.63;2.75;;;28.60;66.00;;;;;;5065303;28;20051;-79
2022/06/17 13:09:55;;;;;;;6.88;2.72;;;28.60;65.60;;;;;;5049947;28;20241;-82
2022/06/17 13:12:27;;;;;;;6.13;3.00;;;28.80;66.70;;;;;;5050384;28;20376;-77
2022/06/17 13:14:59;;;;;;;8.18;2.60;;;28.90;66.20;;;;;;5054712;28;20543;-77